sensor_id;sensor_type;location;lat;lon;timestamp;pressure;altitude;pressure_sealevel;temperature;humidity
62374;BME280;48409;49.030;1.820;2022-08-01T00:00:21;101073.09;;;24.50;45.85
62374;BME280;48409;49.030;1.820;2022-08-01T00:02:46;101075.94;;;24.49;45.92
62374;BME280;48409;49.030;1.820;2022-08-01T00:05:12;101077.78;;;24.48;45.97
62374;BME280;48409;49.030;1.820;2022-08-01T00:07:37;101078.81;;;24.47;46.04
62374;BME280;48409;49.030;1.820;2022-08-01T00:10:04;101077.09;;;24.46;45.86
62374;BME280;48409;49.030;1.820;2022-08-01T00:12:29;101075.41;;;24.45;46.07
62374;BME280;48409;49.030;1.820;2022-08-01T00:14:55;101063.81;;;24.45;45.97
62374;BME280;48409;49.030;1.820;2022-08-01T00:17:20;101068.63;;;24.41;46.16
62374;BME280;48409;49.030;1.820;2022-08-01T00:19:46;101070.31;;;24.42;46.00
62374;BME280;48409;49.030;1.820;2022-08-01T00:22:11;101066.94;;;24.40;46.32
62374;BME280;48409;49.030;1.820;2022-08-01T00:24:36;101068.63;;;24.41;46.09
62374;BME280;48409;49.030;1.820;2022-08-01T00:27:02;101055.47;;;24.38;46.17
62374;BME280;48409;49.030;1.820;2022-08-01T00:29:27;101047.41;;;24.38;46.16
62374;BME280;48409;49.030;1.820;2022-08-01T00:31:52;101051.09;;;24.37;46.27
62374;BME280;48409;49.030;1.820;2022-08-01T00:34:18;101048.53;;;24.35;46.38
62374;BME280;48409;49.030;1.820;2022-08-01T00:36:43;101047.72;;;24.35;46.39
62374;BME280;48409;49.030;1.820;2022-08-01T00:39:08;101047.72;;;24.35;46.34
62374;BME280;48409;49.030;1.820;2022-08-01T00:41:34;101062.19;;;24.34;46.35
62374;BME280;48409;49.030;1.820;2022-08-01T00:44:03;101060.47;;;24.33;46.34
62374;BME280;48409;49.030;1.820;2022-08-01T00:46:29;101063.16;;;24.33;46.46
62374;BME280;48409;49.030;1.820;2022-08-01T00:48:54;101053.41;;;24.32;46.48
62374;BME280;48409;49.030;1.820;2022-08-01T00:51:20;101063.31;;;24.31;46.62
62374;BME280;48409;49.030;1.820;2022-08-01T00:53:46;101063.31;;;24.31;46.49
62374;BME280;48409;49.030;1.820;2022-08-01T00:56:11;101052.72;;;24.30;46.67
62374;BME280;48409;49.030;1.820;2022-08-01T00:58:37;101062.47;;;24.31;46.69
62374;BME280;48409;49.030;1.820;2022-08-01T01:01:02;101058.94;;;24.30;46.59
62374;BME280;48409;49.030;1.820;2022-08-01T01:03:28;101040.94;;;24.31;46.52
62374;BME280;48409;49.030;1.820;2022-08-01T01:08:53;101049.03;;;24.31;46.56
62374;BME280;48409;49.030;1.820;2022-08-01T01:11:25;101051.72;;;24.31;46.63
62374;BME280;48409;49.030;1.820;2022-08-01T01:13:59;101053.69;;;24.29;46.75
62374;BME280;48409;49.030;1.820;2022-08-01T01:16:26;101048.31;;;24.29;46.64
62374;BME280;48409;49.030;1.820;2022-08-01T01:18:56;101044.78;;;24.28;46.72
62374;BME280;48409;49.030;1.820;2022-08-01T01:21:42;101045.63;;;24.29;46.74
62374;BME280;48409;49.030;1.820;2022-08-01T01:24:21;101034.84;;;24.29;46.85
62374;BME280;48409;49.030;1.820;2022-08-01T01:26:53;101036.72;;;24.28;46.87
62374;BME280;48409;49.030;1.820;2022-08-01T01:29:28;101045.81;;;24.27;46.92
62374;BME280;48409;49.030;1.820;2022-08-01T01:32:08;101041.25;;;24.28;46.72
62374;BME280;48409;49.030;1.820;2022-08-01T01:34:37;101046.63;;;24.28;46.86
62374;BME280;48409;49.030;1.820;2022-08-01T01:37:07;101035.88;;;24.28;46.94
62374;BME280;48409;49.030;1.820;2022-08-01T01:39:35;101034.19;;;24.27;47.07
62374;BME280;48409;49.030;1.820;2022-08-01T01:42:02;101045.81;;;24.27;47.10
62374;BME280;48409;49.030;1.820;2022-08-01T01:44:31;101035.03;;;24.27;47.18
62374;BME280;48409;49.030;1.820;2022-08-01T01:46:57;101029.66;;;24.27;47.18
62374;BME280;48409;49.030;1.820;2022-08-01T01:49:27;101035.03;;;24.27;47.21
62374;BME280;48409;49.030;1.820;2022-08-01T01:51:56;101028.81;;;24.27;47.24
62374;BME280;48409;49.030;1.820;2022-08-01T01:54:23;101032.16;;;24.29;47.36
62374;BME280;48409;49.030;1.820;2022-08-01T01:56:50;101024.28;;;24.27;47.22
62374;BME280;48409;49.030;1.820;2022-08-01T01:59:25;101025.81;;;24.30;46.94
62374;BME280;48409;49.030;1.820;2022-08-01T02:01:53;101033.88;;;24.30;47.36
62374;BME280;48409;49.030;1.820;2022-08-01T02:04:20;101024.09;;;24.29;47.28
62374;BME280;48409;49.030;1.820;2022-08-01T02:06:50;101031.34;;;24.28;47.11
62374;BME280;48409;49.030;1.820;2022-08-01T02:09:20;101023.28;;;24.28;47.29
62374;BME280;48409;49.030;1.820;2022-08-01T02:11:49;101029.47;;;24.29;47.23
62374;BME280;48409;49.030;1.820;2022-08-01T02:14:17;101031.19;;;24.30;47.36
62374;BME280;48409;49.030;1.820;2022-08-01T02:16:45;101028.50;;;24.30;47.56
62374;BME280;48409;49.030;1.820;2022-08-01T02:19:12;101023.13;;;24.30;47.50
62374;BME280;48409;49.030;1.820;2022-08-01T02:21:50;101031.00;;;24.31;47.41
62374;BME280;48409;49.030;1.820;2022-08-01T02:24:36;101030.19;;;24.31;47.47
62374;BME280;48409;49.030;1.820;2022-08-01T02:27:07;101025.81;;;24.30;47.49
62374;BME280;48409;49.030;1.820;2022-08-01T02:29:44;101024.81;;;24.31;47.42
62374;BME280;48409;49.030;1.820;2022-08-01T02:32:14;101023.13;;;24.30;47.57
62374;BME280;48409;49.030;1.820;2022-08-01T02:34:43;101028.50;;;24.30;47.70
62374;BME280;48409;49.030;1.820;2022-08-01T02:37:11;101028.50;;;24.30;47.65
62374;BME280;48409;49.030;1.820;2022-08-01T02:39:38;101030.19;;;24.31;47.79
62374;BME280;48409;49.030;1.820;2022-08-01T02:42:06;101031.88;;;24.32;47.75
62374;BME280;48409;49.030;1.820;2022-08-01T02:44:36;101033.56;;;24.33;47.53
62374;BME280;48409;49.030;1.820;2022-08-01T02:47:03;101038.94;;;24.33;47.78
62374;BME280;48409;49.030;1.820;2022-08-01T02:49:32;101032.72;;;24.32;47.76
62374;BME280;48409;49.030;1.820;2022-08-01T02:52:00;101033.56;;;24.33;47.91
62374;BME280;48409;49.030;1.820;2022-08-01T02:54:27;101040.66;;;24.34;47.77
62374;BME280;48409;49.030;1.820;2022-08-01T02:56:55;101028.16;;;24.33;48.00
62374;BME280;48409;49.030;1.820;2022-08-01T02:59:23;101031.56;;;24.35;47.89
62374;BME280;48409;49.030;1.820;2022-08-01T03:01:55;101030.56;;;24.36;47.97
62374;BME280;48409;49.030;1.820;2022-08-01T03:04:23;101027.88;;;24.36;48.11
62374;BME280;48409;49.030;1.820;2022-08-01T03:06:49;101027.00;;;24.35;48.07
62374;BME280;48409;49.030;1.820;2022-08-01T03:09:16;101027.00;;;24.35;48.04
62374;BME280;48409;49.030;1.820;2022-08-01T03:11:43;101021.63;;;24.35;48.09
62374;BME280;48409;49.030;1.820;2022-08-01T03:14:10;101024.19;;;24.37;48.15
62374;BME280;48409;49.030;1.820;2022-08-01T03:16:41;101025.03;;;24.37;48.10
62374;BME280;48409;49.030;1.820;2022-08-01T03:19:10;101025.03;;;24.37;48.17
62374;BME280;48409;49.030;1.820;2022-08-01T03:21:37;101026.88;;;24.37;48.37
62374;BME280;48409;49.030;1.820;2022-08-01T03:24:05;101025.84;;;24.38;48.28
62374;BME280;48409;49.030;1.820;2022-08-01T03:26:33;101016.81;;;24.39;48.30
62374;BME280;48409;49.030;1.820;2022-08-01T03:29:03;101025.56;;;24.41;48.22
62374;BME280;48409;49.030;1.820;2022-08-01T03:31:36;101020.31;;;24.40;48.13
62374;BME280;48409;49.030;1.820;2022-08-01T03:34:02;101022.19;;;24.39;48.28
62374;BME280;48409;49.030;1.820;2022-08-01T03:36:28;101028.25;;;24.41;48.32
62374;BME280;48409;49.030;1.820;2022-08-01T03:39:00;101026.41;;;24.42;48.09
62374;BME280;48409;49.030;1.820;2022-08-01T03:41:31;101025.56;;;24.41;48.33
62374;BME280;48409;49.030;1.820;2022-08-01T03:44:01;101030.94;;;24.41;48.26
62374;BME280;48409;49.030;1.820;2022-08-01T03:46:50;101022.88;;;24.41;48.19
62374;BME280;48409;49.030;1.820;2022-08-01T03:49:21;101025.56;;;24.41;48.23
62374;BME280;48409;49.030;1.820;2022-08-01T03:51:49;101031.94;;;24.40;48.35
62374;BME280;48409;49.030;1.820;2022-08-01T03:54:17;101035.66;;;24.39;48.23
62374;BME280;48409;49.030;1.820;2022-08-01T03:56:45;101033.78;;;24.40;48.06
62374;BME280;48409;49.030;1.820;2022-08-01T03:59:11;101029.41;;;24.38;47.91
62374;BME280;48409;49.030;1.820;2022-08-01T04:01:37;101030.41;;;24.37;48.00
62374;BME280;48409;49.030;1.820;2022-08-01T04:04:02;101021.47;;;24.37;47.85
62374;BME280;48409;49.030;1.820;2022-08-01T04:06:30;101028.88;;;24.35;47.92
62374;BME280;48409;49.030;1.820;2022-08-01T04:08:55;101029.88;;;24.34;47.91
62374;BME280;48409;49.030;1.820;2022-08-01T04:11:21;101021.97;;;24.32;47.93
62374;BME280;48409;49.030;1.820;2022-08-01T04:13:47;101021.97;;;24.32;47.89
62374;BME280;48409;49.030;1.820;2022-08-01T04:16:13;101019.41;;;24.31;47.89
62374;BME280;48409;49.030;1.820;2022-08-01T04:18:38;101013.34;;;24.29;47.88
62374;BME280;48409;49.030;1.820;2022-08-01T04:21:03;101009.97;;;24.27;47.95
62374;BME280;48409;49.030;1.820;2022-08-01T04:23:29;101016.34;;;24.25;47.94
62374;BME280;48409;49.030;1.820;2022-08-01T04:25:56;101021.72;;;24.25;47.88
62374;BME280;48409;49.030;1.820;2022-08-01T04:28:22;101021.88;;;24.24;48.04
62374;BME280;48409;49.030;1.820;2022-08-01T04:30:48;101014.97;;;24.21;48.07
62374;BME280;48409;49.030;1.820;2022-08-01T04:33:15;101024.72;;;24.22;48.06
62374;BME280;48409;49.030;1.820;2022-08-01T04:35:42;101022.19;;;24.21;48.11
62374;BME280;48409;49.030;1.820;2022-08-01T04:38:08;101025.72;;;24.21;48.10
62374;BME280;48409;49.030;1.820;2022-08-01T04:40:35;101033.09;;;24.19;48.13
62374;BME280;48409;49.030;1.820;2022-08-01T04:43:01;101032.94;;;24.21;48.08
62374;BME280;48409;49.030;1.820;2022-08-01T04:45:27;101027.72;;;24.19;48.21
62374;BME280;48409;49.030;1.820;2022-08-01T04:47:52;101034.94;;;24.19;48.19
62374;BME280;48409;49.030;1.820;2022-08-01T04:50:18;101041.16;;;24.19;48.20
62374;BME280;48409;49.030;1.820;2022-08-01T04:52:46;101047.53;;;24.18;48.26
62374;BME280;48409;49.030;1.820;2022-08-01T04:55:11;101056.47;;;24.19;48.21
62374;BME280;48409;49.030;1.820;2022-08-01T04:57:37;101043.84;;;24.19;48.35
62374;BME280;48409;49.030;1.820;2022-08-01T05:00:04;101049.22;;;24.19;48.18
62374;BME280;48409;49.030;1.820;2022-08-01T05:02:29;101047.53;;;24.18;48.29
62374;BME280;48409;49.030;1.820;2022-08-01T05:04:54;101041.31;;;24.18;48.34
62374;BME280;48409;49.030;1.820;2022-08-01T05:07:20;101047.53;;;24.18;48.31
62374;BME280;48409;49.030;1.820;2022-08-01T05:09:45;101052.94;;;24.18;48.34
62374;BME280;48409;49.030;1.820;2022-08-01T05:12:11;101052.94;;;24.18;48.30
62374;BME280;48409;49.030;1.820;2022-08-01T05:14:37;101052.94;;;24.18;48.28
62374;BME280;48409;49.030;1.820;2022-08-01T05:17:03;101053.94;;;24.17;48.44
62374;BME280;48409;49.030;1.820;2022-08-01T05:19:35;101058.31;;;24.18;48.31
62374;BME280;48409;49.030;1.820;2022-08-01T05:22:02;101058.31;;;24.18;48.38
62374;BME280;48409;49.030;1.820;2022-08-01T05:24:33;101061.00;;;24.18;48.47
62374;BME280;48409;49.030;1.820;2022-08-01T05:26:58;101054.94;;;24.16;48.44
62374;BME280;48409;49.030;1.820;2022-08-01T05:29:24;101061.00;;;24.18;48.44
62374;BME280;48409;49.030;1.820;2022-08-01T05:31:49;101058.31;;;24.18;48.49
62374;BME280;48409;49.030;1.820;2022-08-01T05:34:15;101066.38;;;24.18;48.49
62374;BME280;48409;49.030;1.820;2022-08-01T05:36:40;101066.38;;;24.18;48.54
62374;BME280;48409;49.030;1.820;2022-08-01T05:39:05;101055.75;;;24.17;48.44
62374;BME280;48409;49.030;1.820;2022-08-01T05:41:31;101061.00;;;24.18;48.56
62374;BME280;48409;49.030;1.820;2022-08-01T05:43:57;101069.06;;;24.18;48.48
62374;BME280;48409;49.030;1.820;2022-08-01T05:46:22;101068.06;;;24.19;48.53
62374;BME280;48409;49.030;1.820;2022-08-01T05:48:47;101069.06;;;24.18;48.59
62374;BME280;48409;49.030;1.820;2022-08-01T05:51:13;101073.44;;;24.19;48.47
62374;BME280;48409;49.030;1.820;2022-08-01T05:53:38;101070.75;;;24.19;48.61
62374;BME280;48409;49.030;1.820;2022-08-01T05:56:04;101067.09;;;24.20;48.62
62374;BME280;48409;49.030;1.820;2022-08-01T05:58:30;101068.78;;;24.21;48.50
62374;BME280;48409;49.030;1.820;2022-08-01T06:00:55;101067.09;;;24.20;48.64
62374;BME280;48409;49.030;1.820;2022-08-01T06:03:21;101065.94;;;24.23;48.62
62374;BME280;48409;49.030;1.820;2022-08-01T06:05:46;101065.94;;;24.23;48.67
62374;BME280;48409;49.030;1.820;2022-08-01T06:08:11;101071.31;;;24.23;48.66
62374;BME280;48409;49.030;1.820;2022-08-01T06:10:36;101066.78;;;24.23;48.81
62374;BME280;48409;49.030;1.820;2022-08-01T06:13:02;101069.47;;;24.23;48.82
62374;BME280;48409;49.030;1.820;2022-08-01T06:15:31;101075.56;;;24.25;48.72
62374;BME280;48409;49.030;1.820;2022-08-01T06:17:56;101071.00;;;24.26;48.73
62374;BME280;48409;49.030;1.820;2022-08-01T06:20:21;101069.16;;;24.27;48.74
62374;BME280;48409;49.030;1.820;2022-08-01T06:22:47;101068.16;;;24.28;48.69
62374;BME280;48409;49.030;1.820;2022-08-01T06:25:12;101072.53;;;24.29;48.79
62374;BME280;48409;49.030;1.820;2022-08-01T06:27:37;101069.84;;;24.29;48.63
62374;BME280;48409;49.030;1.820;2022-08-01T06:30:03;101070.56;;;24.31;48.78
62374;BME280;48409;49.030;1.820;2022-08-01T06:32:29;101065.16;;;24.31;48.96
62374;BME280;48409;49.030;1.820;2022-08-01T06:34:54;101064.03;;;24.33;48.88
62374;BME280;48409;49.030;1.820;2022-08-01T06:37:20;101067.56;;;24.34;48.94
62374;BME280;48409;49.030;1.820;2022-08-01T06:39:46;101070.94;;;24.36;48.95
62374;BME280;48409;49.030;1.820;2022-08-01T06:42:11;101068.94;;;24.38;49.00
62374;BME280;48409;49.030;1.820;2022-08-01T06:44:37;101063.25;;;24.41;49.00
62374;BME280;48409;49.030;1.820;2022-08-01T06:47:02;101055.88;;;24.43;49.06
62374;BME280;48409;49.030;1.820;2022-08-01T06:49:27;101060.09;;;24.46;49.00
62374;BME280;48409;49.030;1.820;2022-08-01T06:51:52;101060.63;;;24.49;49.04
62374;BME280;48409;49.030;1.820;2022-08-01T06:54:18;101064.84;;;24.52;49.05
62374;BME280;48409;49.030;1.820;2022-08-01T06:56:43;101058.31;;;24.55;49.03
62374;BME280;48409;49.030;1.820;2022-08-01T06:59:08;101056.34;;;24.57;49.09
62374;BME280;48409;49.030;1.820;2022-08-01T07:01:33;101054.31;;;24.59;49.14
62374;BME280;48409;49.030;1.820;2022-08-01T07:03:59;101056.88;;;24.60;49.18
62374;BME280;48409;49.030;1.820;2022-08-01T07:06:24;101075.41;;;24.63;49.16
62374;BME280;48409;49.030;1.820;2022-08-01T07:08:50;101072.56;;;24.65;49.13
62374;BME280;48409;49.030;1.820;2022-08-01T07:11:16;101062.47;;;24.67;49.15
62374;BME280;48409;49.030;1.820;2022-08-01T07:13:41;101071.25;;;24.69;49.09
62374;BME280;48409;49.030;1.820;2022-08-01T07:16:06;101079.16;;;24.71;49.14
62374;BME280;48409;49.030;1.820;2022-08-01T07:18:31;101081.69;;;24.72;49.10
62374;BME280;48409;49.030;1.820;2022-08-01T07:20:57;101085.09;;;24.74;49.12
62374;BME280;48409;49.030;1.820;2022-08-01T07:23:22;101088.47;;;24.76;49.16
62374;BME280;48409;49.030;1.820;2022-08-01T07:25:47;101091.00;;;24.78;49.16
62374;BME280;48409;49.030;1.820;2022-08-01T07:28:14;101089.84;;;24.81;49.15
62374;BME280;48409;49.030;1.820;2022-08-01T07:30:40;101091.53;;;24.82;49.09
62374;BME280;48409;49.030;1.820;2022-08-01T07:33:07;101089.59;;;24.84;49.14
62374;BME280;48409;49.030;1.820;2022-08-01T07:35:32;101087.56;;;24.86;49.21
62374;BME280;48409;49.030;1.820;2022-08-01T07:37:57;101086.59;;;24.87;49.16
62374;BME280;48409;49.030;1.820;2022-08-01T07:40:23;101086.25;;;24.90;49.28
62374;BME280;48409;49.030;1.820;2022-08-01T07:42:48;101085.09;;;24.93;49.19
62374;BME280;48409;49.030;1.820;2022-08-01T07:45:13;101081.25;;;24.95;49.16
62374;BME280;48409;49.030;1.820;2022-08-01T07:47:39;101086.31;;;24.98;49.19
62374;BME280;48409;49.030;1.820;2022-08-01T07:50:05;101094.09;;;25.01;49.38
62374;BME280;48409;49.030;1.820;2022-08-01T07:52:31;101104.53;;;25.05;49.40
62374;BME280;48409;49.030;1.820;2022-08-01T07:54:56;101104.09;;;25.09;49.17
62374;BME280;48409;49.030;1.820;2022-08-01T07:57:22;101110.00;;;25.13;49.52
62374;BME280;48409;49.030;1.820;2022-08-01T07:59:48;101106.00;;;25.17;49.45
62374;BME280;48409;49.030;1.820;2022-08-01T08:02:13;101097.44;;;25.22;49.66
62374;BME280;48409;49.030;1.820;2022-08-01T08:04:38;101097.81;;;25.27;49.58
62374;BME280;48409;49.030;1.820;2022-08-01T08:07:04;101094.66;;;25.32;49.51
62374;BME280;48409;49.030;1.820;2022-08-01T08:09:29;101098.72;;;25.36;49.58
62374;BME280;48409;49.030;1.820;2022-08-01T08:11:54;101098.06;;;25.42;49.67
62374;BME280;48409;49.030;1.820;2022-08-01T08:14:19;101095.75;;;25.47;49.69
62374;BME280;48409;49.030;1.820;2022-08-01T08:16:47;101102.19;;;25.54;49.90
62374;BME280;48409;49.030;1.820;2022-08-01T08:19:12;101099.91;;;25.60;49.86
62374;BME280;48409;49.030;1.820;2022-08-01T08:21:38;101104.63;;;25.66;49.78
62374;BME280;48409;49.030;1.820;2022-08-01T08:24:03;101107.69;;;25.71;49.76
62374;BME280;48409;49.030;1.820;2022-08-01T08:26:49;101108.75;;;25.78;49.68
62374;BME280;48409;49.030;1.820;2022-08-01T08:29:15;101102.03;;;25.83;49.78
62374;BME280;48409;49.030;1.820;2022-08-01T08:31:40;101101.53;;;25.87;49.70
62374;BME280;48409;49.030;1.820;2022-08-01T08:34:05;101092.94;;;25.92;49.65
62374;BME280;48409;49.030;1.820;2022-08-01T08:36:31;101088.91;;;25.96;49.70
62374;BME280;48409;49.030;1.820;2022-08-01T08:38:56;101097.38;;;26.01;49.59
62374;BME280;48409;49.030;1.820;2022-08-01T08:41:22;101104.13;;;26.05;49.59
62374;BME280;48409;49.030;1.820;2022-08-01T08:43:47;101094.69;;;26.10;49.68
62374;BME280;48409;49.030;1.820;2022-08-01T08:46:13;101092.19;;;26.16;49.57
62374;BME280;48409;49.030;1.820;2022-08-01T08:48:39;101097.78;;;26.23;49.61
62374;BME280;48409;49.030;1.820;2022-08-01T08:51:05;101092.75;;;26.28;49.41
62374;BME280;48409;49.030;1.820;2022-08-01T08:53:31;101098.69;;;26.32;49.61
62374;BME280;48409;49.030;1.820;2022-08-01T08:55:58;101095.47;;;26.37;49.55
62374;BME280;48409;49.030;1.820;2022-08-01T08:58:24;101096.81;;;26.41;49.54
62374;BME280;48409;49.030;1.820;2022-08-01T09:00:51;101105.28;;;26.46;49.45
62374;BME280;48409;49.030;1.820;2022-08-01T09:03:17;101108.50;;;26.50;49.39
62374;BME280;48409;49.030;1.820;2022-08-01T09:05:42;101110.03;;;26.52;49.30
62374;BME280;48409;49.030;1.820;2022-08-01T09:08:09;101101.56;;;26.55;49.34
62374;BME280;48409;49.030;1.820;2022-08-01T09:10:34;101097.72;;;26.58;49.15
62374;BME280;48409;49.030;1.820;2022-08-01T09:13:03;101094.81;;;26.59;49.12
62374;BME280;48409;49.030;1.820;2022-08-01T09:15:42;101090.13;;;26.62;49.01
62374;BME280;48409;49.030;1.820;2022-08-01T09:18:08;101090.13;;;26.62;49.02
62374;BME280;48409;49.030;1.820;2022-08-01T09:20:34;101098.22;;;26.62;49.04
62374;BME280;48409;49.030;1.820;2022-08-01T09:23:02;101110.69;;;26.63;48.86
62374;BME280;48409;49.030;1.820;2022-08-01T09:25:28;101106.97;;;26.64;48.95
62374;BME280;48409;49.030;1.820;2022-08-01T09:28:05;101106.97;;;26.64;48.81
62374;BME280;48409;49.030;1.820;2022-08-01T09:30:40;101106.97;;;26.64;48.89
62374;BME280;48409;49.030;1.820;2022-08-01T09:33:05;101107.84;;;26.64;48.80
62374;BME280;48409;49.030;1.820;2022-08-01T09:35:34;101118.47;;;26.66;48.89
62374;BME280;48409;49.030;1.820;2022-08-01T09:38:11;101109.34;;;26.67;49.01
62374;BME280;48409;49.030;1.820;2022-08-01T09:40:48;101101.59;;;26.72;48.94
62374;BME280;48409;49.030;1.820;2022-08-01T09:43:14;101106.34;;;26.78;49.25
62374;BME280;48409;49.030;1.820;2022-08-01T09:45:39;101101.94;;;26.85;49.49
62374;BME280;48409;49.030;1.820;2022-08-01T09:48:08;101102.66;;;26.96;49.58
62374;BME280;48409;49.030;1.820;2022-08-01T09:50:40;101107.69;;;27.07;49.68
62374;BME280;48409;49.030;1.820;2022-08-01T09:53:06;101109.03;;;27.20;49.79
62374;BME280;48409;49.030;1.820;2022-08-01T09:55:32;101118.50;;;27.32;49.93
62374;BME280;48409;49.030;1.820;2022-08-01T09:57:57;101116.44;;;27.43;49.84
62374;BME280;48409;49.030;1.820;2022-08-01T10:00:25;101117.75;;;27.55;49.84
62374;BME280;48409;49.030;1.820;2022-08-01T10:02:50;101116.75;;;27.65;49.67
62374;BME280;48409;49.030;1.820;2022-08-01T10:05:16;101125.88;;;27.72;49.63
62374;BME280;48409;49.030;1.820;2022-08-01T10:07:57;101114.16;;;27.80;49.49
62374;BME280;48409;49.030;1.820;2022-08-01T10:10:23;101119.72;;;27.86;49.17
62374;BME280;48409;49.030;1.820;2022-08-01T10:12:48;101121.69;;;27.93;49.23
62374;BME280;48409;49.030;1.820;2022-08-01T10:15:16;101124.91;;;27.96;49.14
62374;BME280;48409;49.030;1.820;2022-08-01T10:17:46;101128.28;;;27.98;48.82
62374;BME280;48409;49.030;1.820;2022-08-01T10:20:12;101129.78;;;28.01;48.76
62374;BME280;48409;49.030;1.820;2022-08-01T10:22:38;101135.72;;;28.05;48.65
62374;BME280;48409;49.030;1.820;2022-08-01T10:25:04;101130.09;;;28.06;48.72
62374;BME280;48409;49.030;1.820;2022-08-01T10:27:30;101132.47;;;28.09;48.65
62374;BME280;48409;49.030;1.820;2022-08-01T10:30:01;101136.69;;;28.12;48.49
62374;BME280;48409;49.030;1.820;2022-08-01T10:32:32;101140.88;;;28.14;48.63
62374;BME280;48409;49.030;1.820;2022-08-01T10:34:58;101123.44;;;28.17;48.64
62374;BME280;48409;49.030;1.820;2022-08-01T10:37:23;101121.25;;;28.21;48.68
62374;BME280;48409;49.030;1.820;2022-08-01T10:39:50;101125.97;;;28.27;48.57
62374;BME280;48409;49.030;1.820;2022-08-01T10:42:15;101132.91;;;28.30;48.58
62374;BME280;48409;49.030;1.820;2022-08-01T10:44:42;101131.34;;;28.35;48.48
62374;BME280;48409;49.030;1.820;2022-08-01T10:47:12;101135.22;;;28.41;48.61
62374;BME280;48409;49.030;1.820;2022-08-01T10:52:21;101122.94;;;28.53;48.68
62374;BME280;48409;49.030;1.820;2022-08-01T10:54:46;101123.06;;;28.60;48.54
62374;BME280;48409;49.030;1.820;2022-08-01T10:57:12;101125.91;;;28.67;48.47
62374;BME280;48409;49.030;1.820;2022-08-01T10:59:51;101120.78;;;28.72;48.53
62374;BME280;48409;49.030;1.820;2022-08-01T11:02:27;101125.28;;;28.80;48.49
62374;BME280;48409;49.030;1.820;2022-08-01T11:05:03;101117.44;;;28.85;48.19
62374;BME280;48409;49.030;1.820;2022-08-01T11:07:38;101107.78;;;28.91;48.09
62374;BME280;48409;49.030;1.820;2022-08-01T11:10:09;101114.50;;;28.95;48.05
62374;BME280;48409;49.030;1.820;2022-08-01T11:12:38;101107.88;;;28.98;47.85
62374;BME280;48409;49.030;1.820;2022-08-01T11:22:30;101103.34;;;29.13;47.50
62374;BME280;48409;49.030;1.820;2022-08-01T11:24:55;101110.09;;;29.17;47.49
62374;BME280;48409;49.030;1.820;2022-08-01T11:27:25;101100.75;;;29.20;47.37
62374;BME280;48409;49.030;1.820;2022-08-01T11:35:15;101099.81;;;29.28;47.38
62374;BME280;48409;49.030;1.820;2022-08-01T11:37:40;101088.97;;;29.28;47.13
62374;BME280;48409;49.030;1.820;2022-08-01T11:40:18;101089.41;;;29.31;47.13
62374;BME280;48409;49.030;1.820;2022-08-01T11:42:45;101080.47;;;29.31;46.98
62374;BME280;48409;49.030;1.820;2022-08-01T11:45:10;101085.88;;;29.31;46.86
62374;BME280;48409;49.030;1.820;2022-08-01T11:47:46;101082.13;;;29.32;47.17
62374;BME280;48409;49.030;1.820;2022-08-01T11:52:57;101078.75;;;29.30;46.58
62374;BME280;48409;49.030;1.820;2022-08-01T11:55:22;101078.75;;;29.30;46.58
62374;BME280;48409;49.030;1.820;2022-08-01T11:57:48;101069.97;;;29.28;46.70
62374;BME280;48409;49.030;1.820;2022-08-01T12:00:14;101073.72;;;29.27;46.42
62374;BME280;48409;49.030;1.820;2022-08-01T12:02:41;101061.16;;;29.26;46.52
62374;BME280;48409;49.030;1.820;2022-08-01T12:05:07;101056.13;;;29.23;46.24
62374;BME280;48409;49.030;1.820;2022-08-01T12:07:33;101056.50;;;29.19;46.36
62374;BME280;48409;49.030;1.820;2022-08-01T12:10:00;101047.91;;;29.16;46.09
62374;BME280;48409;49.030;1.820;2022-08-01T12:12:28;101051.84;;;29.13;46.15
62374;BME280;48409;49.030;1.820;2022-08-01T12:14:54;101051.34;;;29.10;45.90
62374;BME280;48409;49.030;1.820;2022-08-01T12:17:26;101048.81;;;29.08;45.89
62374;BME280;48409;49.030;1.820;2022-08-01T12:19:53;101045.81;;;29.03;45.82
62374;BME280;48409;49.030;1.820;2022-08-01T12:22:18;101048.91;;;29.00;46.02
62374;BME280;48409;49.030;1.820;2022-08-01T12:24:46;101058.22;;;28.97;45.65
62374;BME280;48409;49.030;1.820;2022-08-01T12:27:12;101051.13;;;28.96;45.83
62374;BME280;48409;49.030;1.820;2022-08-01T12:29:48;101057.59;;;28.95;45.91
62374;BME280;48409;49.030;1.820;2022-08-01T12:32:23;101052.34;;;28.93;45.86
62374;BME280;48409;49.030;1.820;2022-08-01T12:34:49;101044.41;;;28.92;45.65
62374;BME280;48409;49.030;1.820;2022-08-01T12:37:14;101047.28;;;28.90;45.71
62374;BME280;48409;49.030;1.820;2022-08-01T12:39:41;101044.56;;;28.90;45.71
62374;BME280;48409;49.030;1.820;2022-08-01T12:42:07;101049.00;;;28.91;45.63
62374;BME280;48409;49.030;1.820;2022-08-01T12:44:32;101043.56;;;28.91;45.72
62374;BME280;48409;49.030;1.820;2022-08-01T12:46:58;101041.50;;;28.93;45.82
62374;BME280;48409;49.030;1.820;2022-08-01T12:49:24;101047.41;;;28.97;45.80
62374;BME280;48409;49.030;1.820;2022-08-01T12:51:50;101042.47;;;29.01;45.76
62374;BME280;48409;49.030;1.820;2022-08-01T12:54:15;101049.19;;;29.05;45.65
62374;BME280;48409;49.030;1.820;2022-08-01T12:56:40;101051.16;;;29.11;45.81
62374;BME280;48409;49.030;1.820;2022-08-01T12:59:22;101049.75;;;29.15;45.69
62374;BME280;48409;49.030;1.820;2022-08-01T13:01:50;101046.50;;;29.20;45.72
62374;BME280;48409;49.030;1.820;2022-08-01T13:04:15;101056.13;;;29.23;45.50
62374;BME280;48409;49.030;1.820;2022-08-01T13:06:40;101048.63;;;29.25;45.61
62374;BME280;48409;49.030;1.820;2022-08-01T13:09:06;101050.13;;;29.27;45.65
62374;BME280;48409;49.030;1.820;2022-08-01T13:11:32;101045.19;;;29.31;45.51